Debra Devall — WCW9120 — position and weather

sailwx.info

Track history (hours):
 
Tides and Currents Weather Stations Pressure Air Temp Water Temp Dewpoint Dewpoint Depression Visibility Wind Speed Wind Dir Waves Ship Positions

Debra Devall

Owner: DEVALL DEBRA INC, HACKBERRY, LA. More information available from US FCC via Universal Licensing System and Coast Guard Vessel Documentation Center.

Last reported at 2017-Nov-20 00:30 UTC. Time now 2017-Nov-21 23:13 UTC.
Position N 30°05' W 093°20'.

Length 15 m.

MMSI: 366972940.

Date/timePositionNaut miles runAvg speedWind from/ knotsBaromVisibWave heightAir tempDewpointWater temp
2017-Nov-20 00:30N 30°05' W 093°20'0 0.0
2017-Nov-20 00:00N 30°05' W 093°20'0 0.0
2017-Nov-19 23:30N 30°05' W 093°20'0 0.0
2017-Nov-19 23:01N 30°05' W 093°20'0 0.0
2017-Nov-19 22:31N 30°05' W 093°20'0 0.0
2017-Nov-19 22:01N 30°05' W 093°20'0 0.0
2017-Nov-19 21:31N 30°05' W 093°20'0 0.0
2017-Nov-19 21:00N 30°05' W 093°20'0 0.0
2017-Nov-19 20:30N 30°05' W 093°20'0 0.0
2017-Nov-19 20:00N 30°05' W 093°20'0 0.0
2017-Nov-19 19:30N 30°05' W 093°20'0 0.0
2017-Nov-19 19:00N 30°05' W 093°20'0 0.0
2017-Nov-19 18:31N 30°05' W 093°20'0 0.0
2017-Nov-19 18:01N 30°05' W 093°20'0 0.0
2017-Nov-19 17:30N 30°05' W 093°20'0 0.0
2017-Nov-19 17:01N 30°05' W 093°20'0 0.0
2017-Nov-19 16:31N 30°05' W 093°20'0 0.0
2017-Nov-19 16:00N 30°05' W 093°20'0 0.0
2017-Nov-19 15:31N 30°05' W 093°20'0 0.0
2017-Nov-19 15:00N 30°05' W 093°20'0 0.0
2017-Nov-19 14:30N 30°05' W 093°20'0 0.0
2017-Nov-19 14:01N 30°05' W 093°20'0 0.0
2017-Nov-19 13:30N 30°05' W 093°20'0 0.0
2017-Nov-19 13:01N 30°05' W 093°20'0 0.0
2017-Nov-19 12:31N 30°05' W 093°20'0 0.0
2017-Nov-19 12:00N 30°05' W 093°20'0 0.0
2017-Nov-19 11:30N 30°05' W 093°20'0 0.0
2017-Nov-19 11:01N 30°05' W 093°20'0 0.0
2017-Nov-19 10:31N 30°05' W 093°20'0 0.0
2017-Nov-19 10:01N 30°05' W 093°20'0 0.0
2017-Nov-19 09:31N 30°05' W 093°20'1 1.7
2017-Nov-19 09:00N 30°04' W 093°20'1 1.7
2017-Nov-19 08:31N 30°04' W 093°21'2 4.3
2017-Nov-19 08:00N 30°05' W 093°20'3 6.2
2017-Nov-19 07:30N 30°09' W 093°20'3 5.9
2017-Nov-19 07:01N 30°11' W 093°18'3 5.8
2017-Nov-19 06:30N 30°13' W 093°16'1 1.9
2017-Nov-19 06:01N 30°14' W 093°15'0 0.0
2017-Nov-19 05:30N 30°14' W 093°15'0 0.0
2017-Nov-19 04:59N 30°14' W 093°15'0 0.0
2017-Nov-19 04:31N 30°14' W 093°15'0 0.0
2017-Nov-19 04:00N 30°14' W 093°15'0 0.0
2017-Nov-19 03:30N 30°14' W 093°15'0 0.0
2017-Nov-19 03:00N 30°14' W 093°15'0 0.0
2017-Nov-19 02:30N 30°14' W 093°15'0 0.0
2017-Nov-19 02:01N 30°14' W 093°15'0 0.0
2017-Nov-19 01:31N 30°14' W 093°15'0 0.0
2017-Nov-19 01:01N 30°14' W 093°15'0 0.0
2017-Nov-19 00:31N 30°14' W 093°15'0 0.0
2017-Nov-19 00:00N 30°14' W 093°15'0 0.0
2017-Nov-18 23:30N 30°14' W 093°15'0 0.0
2017-Nov-18 23:01N 30°14' W 093°15'0 0.0
2017-Nov-18 20:43N 30°14' W 093°15'0 0.0
2017-Nov-18 20:30N 30°14' W 093°15'0 0.0
2017-Nov-18 20:01N 30°14' W 093°15'0 0.0
2017-Nov-18 19:30N 30°14' W 093°15'0 0.0
2017-Nov-18 19:01N 30°14' W 093°15'0 0.0
2017-Nov-18 18:30N 30°14' W 093°15'0 0.9
2017-Nov-18 18:00N 30°13' W 093°15'3 6.1
2017-Nov-18 17:31N 30°11' W 093°18'3 6.1
2017-Nov-18 17:01N 30°09' W 093°20'3 6.0
2017-Nov-18 16:31N 30°06' W 093°20'1 1.9
2017-Nov-18 16:01N 30°05' W 093°20'0 0.0
2017-Nov-18 15:31N 30°05' W 093°20'0 0.0
2017-Nov-18 15:01N 30°05' W 093°20'0 0.0
2017-Nov-18 14:31N 30°05' W 093°20'0 0.0
2017-Nov-18 14:01N 30°05' W 093°20'0 0.0
2017-Nov-18 13:31N 30°05' W 093°20'0 0.3
2017-Nov-18 13:00N 30°05' W 093°20'2 4.6
2017-Nov-18 12:31N 30°07' W 093°18'3 6.0
2017-Nov-18 12:00N 30°04' W 093°20'0 0.2
2017-Nov-18 11:31N 30°04' W 093°20'1 1.5
2017-Nov-18 11:01N 30°05' W 093°20'0 0.0
2017-Nov-18 10:30N 30°05' W 093°20'0 0.0
2017-Nov-18 10:00N 30°05' W 093°20'2 4.4
2017-Nov-18 09:31N 30°07' W 093°18'0 0.3
2017-Nov-18 09:01N 30°07' W 093°18'0 0.2
2017-Nov-18 08:30N 30°07' W 093°18'0 0.1
2017-Nov-18 08:00N 30°07' W 093°18'2 3.0
2017-Nov-18 07:30N 30°06' W 093°19'1 2.6
2017-Nov-18 07:00N 30°05' W 093°20'1 2.9
2017-Nov-18 06:30N 30°04' W 093°21'1 1.5
2017-Nov-18 06:01N 30°04' W 093°21'2 3.7
2017-Nov-18 05:31N 30°06' W 093°20'3 5.8
2017-Nov-18 05:01N 30°09' W 093°20'3 5.6
2017-Nov-18 04:30N 30°11' W 093°18'1 2.8
2017-Nov-18 04:01N 30°12' W 093°17'2 3.9
2017-Nov-18 03:30N 30°13' W 093°16'1 1.1
2017-Nov-18 03:00N 30°14' W 093°15'0 0.0
2017-Nov-18 02:31N 30°14' W 093°15'0 0.0
2017-Nov-18 02:01N 30°14' W 093°15'0 0.0
2017-Nov-18 01:31N 30°14' W 093°15'0 0.0
2017-Nov-18 01:00N 30°14' W 093°15'0 0.0
2017-Nov-18 00:28N 30°14' W 093°15'0 0.0
2017-Nov-18 00:00N 30°14' W 093°15'0 0.0
2017-Nov-17 23:30N 30°14' W 093°15'0 0.0
2017-Nov-17 22:50N 30°14' W 093°15'0 0.0
2017-Nov-17 22:30N 30°14' W 093°15'0 0.0
2017-Nov-17 21:59N 30°14' W 093°15'0 0.0
2017-Nov-17 21:31N 30°14' W 093°15'0 0.0
2017-Nov-17 21:00N 30°14' W 093°15'0 0.0
2017-Nov-17 20:30N 30°14' W 093°15'0 0.0
2017-Nov-17 20:00N 30°14' W 093°15'0 0.0
2017-Nov-17 19:30N 30°14' W 093°15'0 0.0
2017-Nov-17 19:00N 30°14' W 093°15'0 0.0
2017-Nov-17 18:31N 30°14' W 093°15'0 0.0
2017-Nov-17 18:00N 30°14' W 093°15'0 0.0
2017-Nov-17 17:31N 30°14' W 093°15'0 0.0
2017-Nov-17 17:01N 30°14' W 093°15'0 0.0
2017-Nov-17 16:31N 30°14' W 093°15'0 0.0
2017-Nov-17 16:01N 30°14' W 093°15'0 0.0
2017-Nov-17 15:31N 30°14' W 093°15'0 0.6
2017-Nov-17 15:01N 30°14' W 093°15'2 4.0
2017-Nov-17 14:31N 30°12' W 093°17'3 5.4
2017-Nov-17 14:01N 30°10' W 093°19'3 5.2
2017-Nov-17 13:31N 30°08' W 093°20'3 5.3
2017-Nov-17 13:01N 30°05' W 093°20'2 3.5
2017-Nov-17 12:30N 30°04' W 093°21'0 0.0
2017-Nov-17 12:00N 30°04' W 093°21'0 0.0
2017-Nov-17 11:31N 30°04' W 093°21'0 0.0
2017-Nov-17 11:01N 30°04' W 093°21'0 0.0
2017-Nov-17 10:30N 30°04' W 093°21'0 0.0
2017-Nov-17 10:01N 30°04' W 093°21'0 0.0
2017-Nov-17 09:31N 30°04' W 093°21'0 0.0
2017-Nov-17 09:01N 30°04' W 093°21'0 0.0
2017-Nov-17 08:31N 30°04' W 093°21'0 0.0
2017-Nov-17 08:00N 30°04' W 093°21'0 0.0
2017-Nov-17 07:31N 30°04' W 093°21'0 0.0
2017-Nov-17 07:00N 30°04' W 093°21'0 0.0
2017-Nov-17 06:31N 30°04' W 093°21'0 0.0
2017-Nov-17 06:00N 30°04' W 093°21'0 0.0
2017-Nov-17 05:31N 30°04' W 093°21'0 0.0
2017-Nov-17 05:00N 30°04' W 093°21'0 0.0
2017-Nov-17 04:30N 30°04' W 093°21'0 0.1
2017-Nov-17 04:00N 30°04' W 093°21'0 0.9
2017-Nov-17 03:31N 30°04' W 093°22'2 4.4
2017-Nov-17 03:00N 30°05' W 093°20'0 0.0
2017-Nov-17 02:31N 30°05' W 093°20'0 0.0
2017-Nov-17 02:01N 30°05' W 093°20'2 3.2
2017-Nov-17 01:31N 30°06' W 093°20'3 6.6
2017-Nov-17 01:00N 30°10' W 093°19'3 6.5
2017-Nov-17 00:31N 30°12' W 093°17'2 3.9
2017-Nov-16 23:58N 30°14' W 093°15'2 5.3
2017-Nov-16 23:30N 30°12' W 093°17'3 6.6
2017-Nov-16 23:00N 30°09' W 093°20'3 6.6
2017-Nov-16 22:31N 30°06' W 093°20'3 5.6
2017-Nov-16 22:01N 30°04' W 093°21'0 0.2
2017-Nov-16 21:31N 30°04' W 093°21'1 2.6
2017-Nov-16 21:00N 30°05' W 093°20'2 4.7
2017-Nov-16 20:30N 30°07' W 093°20'3 5.4
2017-Nov-16 20:01N 30°10' W 093°19'3 5.6
2017-Nov-16 19:31N 30°12' W 093°17'3 5.2
2017-Nov-16 19:00N 30°14' W 093°15'0 0.4
2017-Nov-16 18:31N 30°14' W 093°15'0 0.0
2017-Nov-16 18:00N 30°14' W 093°15'0 0.0
2017-Nov-16 17:31N 30°14' W 093°15'0 0.0
2017-Nov-16 17:01N 30°14' W 093°15'0 0.0
2017-Nov-16 16:30N 30°14' W 093°15'0 0.0
2017-Nov-16 16:00N 30°14' W 093°15'0 0.0
2017-Nov-16 15:30N 30°14' W 093°15'0 0.0
2017-Nov-16 15:00N 30°14' W 093°15'0 0.0
2017-Nov-16 14:31N 30°14' W 093°15'0 0.0
2017-Nov-16 13:58N 30°14' W 093°15'0 0.0
2017-Nov-16 13:29N 30°14' W 093°15'0 0.0
2017-Nov-16 13:01N 30°14' W 093°15'0 0.0
2017-Nov-16 12:31N 30°14' W 093°15'0 0.0
2017-Nov-16 12:00N 30°14' W 093°15'0 0.0
2017-Nov-16 11:31N 30°14' W 093°15'0 0.0
2017-Nov-16 11:01N 30°14' W 093°15'0 0.0
2017-Nov-16 10:30N 30°14' W 093°15'0 0.0
2017-Nov-16 10:00N 30°14' W 093°15'0 0.0
2017-Nov-16 09:30N 30°14' W 093°15'0 0.0
2017-Nov-16 09:01N 30°14' W 093°15'0 0.0
2017-Nov-16 08:31N 30°14' W 093°15'0 0.0
2017-Nov-16 08:01N 30°14' W 093°15'0 0.0
2017-Nov-16 07:30N 30°14' W 093°15'0 0.0
2017-Nov-16 07:01N 30°14' W 093°15'0 0.0
2017-Nov-16 06:30N 30°14' W 093°15'1 1.7
2017-Nov-16 06:00N 30°13' W 093°16'3 6.2
2017-Nov-16 05:31N 30°11' W 093°18'3 5.8
2017-Nov-16 05:00N 30°09' W 093°20'3 6.0
2017-Nov-16 04:31N 30°06' W 093°20'1 2.5
2017-Nov-16 04:01N 30°04' W 093°20'1 2.1
2017-Nov-16 03:31N 30°04' W 093°21'0 0.0
2017-Nov-16 03:01N 30°04' W 093°21'0 0.0
2017-Nov-16 02:31N 30°04' W 093°21'0 0.0
2017-Nov-16 02:01N 30°04' W 093°21'0 0.0
2017-Nov-16 01:30N 30°04' W 093°21'0 0.0
2017-Nov-16 01:00N 30°04' W 093°21'0 0.0
2017-Nov-16 00:31N 30°04' W 093°21'0 0.0
2017-Nov-16 00:00N 30°04' W 093°21'0 0.0
2017-Nov-15 23:31N 30°04' W 093°21'0 0.0
2017-Nov-15 23:01N 30°04' W 093°21'0 0.0
2017-Nov-15 22:31N 30°04' W 093°21'0 0.0
2017-Nov-15 22:01N 30°04' W 093°21'0 0.0
2017-Nov-15 21:30N 30°04' W 093°21'0 0.4
2017-Nov-15 21:01N 30°04' W 093°21'1 2.9
2017-Nov-15 20:31N 30°05' W 093°20'1 1.1
2017-Nov-15 20:00N 30°05' W 093°20'0 0.0
2017-Nov-15 19:30N 30°05' W 093°20'0 0.6
2017-Nov-15 19:01N 30°05' W 093°20'0 0.7
2017-Nov-15 18:31N 30°05' W 093°20'0 0.0
2017-Nov-15 18:01N 30°05' W 093°20'0 0.0
2017-Nov-15 17:31N 30°05' W 093°20'0 0.0
2017-Nov-15 17:01N 30°05' W 093°20'0 0.0
2017-Nov-15 16:31N 30°05' W 093°20'0 0.0
2017-Nov-15 16:01N 30°05' W 093°20'0 0.0
2017-Nov-15 15:30N 30°05' W 093°20'0 0.0
2017-Nov-15 15:01N 30°05' W 093°20'0 0.0
2017-Nov-15 14:31N 30°05' W 093°20'0 0.0
2017-Nov-15 14:00N 30°05' W 093°20'0 0.0
2017-Nov-15 13:31N 30°05' W 093°20'0 0.0
2017-Nov-15 13:01N 30°05' W 093°20'0 0.0
2017-Nov-15 12:31N 30°05' W 093°20'0 0.0
2017-Nov-15 12:00N 30°05' W 093°20'0 0.0
2017-Nov-15 11:31N 30°05' W 093°20'0 0.0
2017-Nov-15 11:00N 30°05' W 093°20'0 0.0
2017-Nov-15 10:30N 30°05' W 093°20'0 0.0
2017-Nov-15 10:00N 30°05' W 093°20'0 0.0
2017-Nov-15 09:30N 30°05' W 093°20'0 0.0
2017-Nov-15 09:00N 30°05' W 093°20'0 0.0
2017-Nov-15 08:30N 30°05' W 093°20'0 0.0
2017-Nov-15 08:00N 30°05' W 093°20'0 0.0
2017-Nov-15 07:30N 30°05' W 093°20'1 1.7
2017-Nov-15 07:00N 30°06' W 093°20'3 6.2
2017-Nov-15 06:30N 30°09' W 093°20'3 5.7
2017-Nov-15 06:00N 30°11' W 093°18'3 5.2
2017-Nov-15 05:30N 30°13' W 093°17'0 0.1
2017-Nov-15 05:00N 30°13' W 093°17'3 5.1
2017-Nov-15 04:30N 30°11' W 093°18'3 5.5
2017-Nov-15 04:00N 30°09' W 093°20'3 5.8
2017-Nov-15 03:30N 30°06' W 093°20'3 5.1
2017-Nov-15 03:00N 30°04' W 093°21'1 1.6
2017-Nov-15 02:30N 30°04' W 093°20'1 1.9
2017-Nov-15 02:00N 30°05' W 093°20'0 0.2
2017-Nov-15 01:30N 30°05' W 093°20'0 0.4
2017-Nov-15 01:00N 30°05' W 093°20'0 0.0
2017-Nov-15 00:30N 30°05' W 093°20'0 0.0
2017-Nov-15 00:00N 30°05' W 093°20'1 2.3
2017-Nov-14 23:30N 30°04' W 093°21'1 1.3
2017-Nov-14 23:00N 30°04' W 093°21'0 0.0
2017-Nov-14 22:30N 30°04' W 093°21'0 0.0
2017-Nov-14 22:00N 30°04' W 093°21'0 0.0
2017-Nov-14 21:30N 30°04' W 093°21'0 0.0
2017-Nov-14 21:00N 30°04' W 093°21'0 0.0
2017-Nov-14 20:30N 30°04' W 093°21'0 0.0
2017-Nov-14 20:00N 30°04' W 093°21'1 2.8
2017-Nov-14 19:30N 30°05' W 093°20'0 0.8
2017-Nov-14 19:00N 30°05' W 093°20'2 3.4
2017-Nov-14 18:30N 30°04' W 093°21'2 3.4
2017-Nov-14 18:00N 30°05' W 093°20'0 0.3
2017-Nov-14 17:30N 30°05' W 093°20'0 0.0
2017-Nov-14 17:00N 30°05' W 093°20'0 0.0
2017-Nov-14 16:30N 30°05' W 093°20'0 0.0
2017-Nov-14 16:00N 30°05' W 093°20'0 0.0
2017-Nov-14 15:30N 30°05' W 093°20'0 0.0
2017-Nov-14 15:00N 30°05' W 093°20'0 0.0
2017-Nov-14 14:30N 30°05' W 093°20'0 0.7
2017-Nov-14 13:59N 30°05' W 093°20'1 1.4
2017-Nov-14 13:30N 30°06' W 093°20'3 6.4
2017-Nov-14 13:00N 30°09' W 093°20'3 6.1
2017-Nov-14 12:30N 30°11' W 093°18'3 5.5
2017-Nov-14 11:55N 30°14' W 093°15'4 0.3
2017-Nov-13 22:47N 30°11' W 093°18'3 6.2
2017-Nov-13 22:21N 30°09' W 093°20'4 5.5
2017-Nov-13 21:39N 30°05' W 093°20'1 0.0
2017-Nov-13 01:04N 30°04' W 093°20'0 4.6
2017-Nov-13 00:59N 30°04' W 093°21'1 2.3
2017-Nov-13 00:29N 30°05' W 093°20'0 0.0
2017-Nov-12 23:39N 30°05' W 093°20'0 0.0
2017-Nov-12 23:27N 30°05' W 093°20'0 0.0
2017-Nov-12 22:59N 30°05' W 093°20'0 0.0
2017-Nov-12 22:29N 30°05' W 093°20'0 0.0
2017-Nov-12 21:59N 30°05' W 093°20'0 0.2
2017-Nov-12 21:29N 30°05' W 093°20'1 1.0
2017-Nov-12 20:55N 30°05' W 093°20'0 0.0
2017-Nov-12 20:29N 30°05' W 093°20'0 0.2
2017-Nov-12 19:59N 30°05' W 093°20'0 0.0
2017-Nov-12 19:29N 30°05' W 093°20'1 1.1
2017-Nov-12 18:55N 30°05' W 093°20'0 0.0
2017-Nov-12 17:38N 30°05' W 093°20'0 0.0
2017-Nov-12 17:27N 30°05' W 093°20'2 3.9
2017-Nov-12 16:59N 30°04' W 093°21'0 0.0
2017-Nov-12 16:30N 30°04' W 093°21'0 0.0
2017-Nov-12 15:59N 30°04' W 093°21'0 0.0
2017-Nov-12 15:29N 30°04' W 093°21'0 0.0
2017-Nov-12 14:57N 30°04' W 093°21'0 0.0
2017-Nov-12 14:27N 30°04' W 093°21'0 0.0
2017-Nov-12 13:55N 30°04' W 093°21'0 0.0
2017-Nov-12 13:27N 30°04' W 093°21'0 0.0
2017-Nov-12 12:59N 30°04' W 093°21'0 0.0
2017-Nov-12 12:23N 30°04' W 093°21'0 0.0
2017-Nov-12 11:53N 30°04' W 093°21'2 0.0
2017-Nov-10 16:30N 30°05' W 093°20'3 5.5
2017-Nov-10 16:00N 30°08' W 093°20'3 5.6
2017-Nov-10 15:30N 30°10' W 093°19'3 6.2
2017-Nov-10 15:00N 30°12' W 093°16'2 3.6
2017-Nov-10 14:31N 30°14' W 093°15'0 0.0
2017-Nov-10 14:00N 30°14' W 093°15'0 0.0
2017-Nov-10 13:30N 30°14' W 093°15'0 0.0
2017-Nov-10 13:00N 30°14' W 093°15'0 0.0
2017-Nov-10 12:31N 30°14' W 093°15'0 0.0
2017-Nov-10 12:01N 30°14' W 093°15'0 0.0
2017-Nov-10 11:31N 30°14' W 093°15'0 0.0
2017-Nov-10 11:00N 30°14' W 093°15'0 0.0
2017-Nov-10 10:30N 30°14' W 093°15'0 0.0
2017-Nov-10 10:01N 30°14' W 093°15'0 0.0
2017-Nov-10 09:30N 30°14' W 093°15'0 0.0
2017-Nov-10 09:01N 30°14' W 093°15'0 0.0
2017-Nov-10 08:30N 30°14' W 093°15'0 0.0
2017-Nov-10 08:00N 30°14' W 093°15'0 0.0
2017-Nov-10 07:31N 30°14' W 093°15'1 2.4
2017-Nov-10 07:01N 30°13' W 093°16'3 5.3
2017-Nov-10 06:31N 30°11' W 093°18'2 4.7
2017-Nov-10 06:00N 30°09' W 093°20'3 6.2
2017-Nov-10 05:30N 30°06' W 093°20'1 2.6
2017-Nov-10 05:01N 30°05' W 093°20'3 6.1
2017-Nov-10 04:31N 30°08' W 093°20'3 6.3
2017-Nov-10 04:01N 30°11' W 093°19'3 6.5
2017-Nov-10 03:30N 30°13' W 093°16'1 1.6
2017-Nov-10 02:59N 30°14' W 093°15'1 2.5
2017-Nov-10 02:31N 30°13' W 093°16'3 7.0
2017-Nov-10 02:01N 30°11' W 093°19'3 5.8
2017-Nov-10 01:31N 30°08' W 093°20'3 5.8
2017-Nov-10 01:00N 30°05' W 093°20'0 0.2
2017-Nov-10 00:31N 30°05' W 093°20'  
Track history (hours):
 
Tides and Currents Weather Stations Pressure Air Temp Water Temp Dewpoint Dewpoint Depression Visibility Wind Speed Wind Dir Waves Ship Positions

Debra Devall

Owner: DEVALL DEBRA INC, HACKBERRY, LA. More information available from US FCC via Universal Licensing System and Coast Guard Vessel Documentation Center.

Last reported at 2017-Nov-20 00:30 UTC. Time now 2017-Nov-21 23:13 UTC.
Position N 30°05' W 093°20'.

Length 15 m.

MMSI: 366972940.

Date/timePositionNaut miles runAvg speedWind from/ knotsBaromVisibWave heightAir tempDewpointWater temp
2017-Nov-20 00:30N 30°05' W 093°20'0 0.0
2017-Nov-20 00:00N 30°05' W 093°20'0 0.0
2017-Nov-19 23:30N 30°05' W 093°20'0 0.0
2017-Nov-19 23:01N 30°05' W 093°20'0 0.0
2017-Nov-19 22:31N 30°05' W 093°20'0 0.0
2017-Nov-19 22:01N 30°05' W 093°20'0 0.0
2017-Nov-19 21:31N 30°05' W 093°20'0 0.0
2017-Nov-19 21:00N 30°05' W 093°20'0 0.0
2017-Nov-19 20:30N 30°05' W 093°20'0 0.0
2017-Nov-19 20:00N 30°05' W 093°20'0 0.0
2017-Nov-19 19:30N 30°05' W 093°20'0 0.0
2017-Nov-19 19:00N 30°05' W 093°20'0 0.0
2017-Nov-19 18:31N 30°05' W 093°20'0 0.0
2017-Nov-19 18:01N 30°05' W 093°20'0 0.0
2017-Nov-19 17:30N 30°05' W 093°20'0 0.0
2017-Nov-19 17:01N 30°05' W 093°20'0 0.0
2017-Nov-19 16:31N 30°05' W 093°20'0 0.0
2017-Nov-19 16:00N 30°05' W 093°20'0 0.0
2017-Nov-19 15:31N 30°05' W 093°20'0 0.0
2017-Nov-19 15:00N 30°05' W 093°20'0 0.0
2017-Nov-19 14:30N 30°05' W 093°20'0 0.0
2017-Nov-19 14:01N 30°05' W 093°20'0 0.0
2017-Nov-19 13:30N 30°05' W 093°20'0 0.0
2017-Nov-19 13:01N 30°05' W 093°20'0 0.0
2017-Nov-19 12:31N 30°05' W 093°20'0 0.0
2017-Nov-19 12:00N 30°05' W 093°20'0 0.0
2017-Nov-19 11:30N 30°05' W 093°20'0 0.0
2017-Nov-19 11:01N 30°05' W 093°20'0 0.0
2017-Nov-19 10:31N 30°05' W 093°20'0 0.0
2017-Nov-19 10:01N 30°05' W 093°20'0 0.0
2017-Nov-19 09:31N 30°05' W 093°20'1 1.7
2017-Nov-19 09:00N 30°04' W 093°20'1 1.7
2017-Nov-19 08:31N 30°04' W 093°21'2 4.3
2017-Nov-19 08:00N 30°05' W 093°20'3 6.2
2017-Nov-19 07:30N 30°09' W 093°20'3 5.9
2017-Nov-19 07:01N 30°11' W 093°18'3 5.8
2017-Nov-19 06:30N 30°13' W 093°16'1 1.9
2017-Nov-19 06:01N 30°14' W 093°15'0 0.0
2017-Nov-19 05:30N 30°14' W 093°15'0 0.0
2017-Nov-19 04:59N 30°14' W 093°15'0 0.0
2017-Nov-19 04:31N 30°14' W 093°15'0 0.0
2017-Nov-19 04:00N 30°14' W 093°15'0 0.0
2017-Nov-19 03:30N 30°14' W 093°15'0 0.0
2017-Nov-19 03:00N 30°14' W 093°15'0 0.0
2017-Nov-19 02:30N 30°14' W 093°15'0 0.0
2017-Nov-19 02:01N 30°14' W 093°15'0 0.0
2017-Nov-19 01:31N 30°14' W 093°15'0 0.0
2017-Nov-19 01:01N 30°14' W 093°15'0 0.0
2017-Nov-19 00:31N 30°14' W 093°15'0 0.0
2017-Nov-19 00:00N 30°14' W 093°15'0 0.0
2017-Nov-18 23:30N 30°14' W 093°15'0 0.0
2017-Nov-18 23:01N 30°14' W 093°15'0 0.0
2017-Nov-18 20:43N 30°14' W 093°15'0 0.0
2017-Nov-18 20:30N 30°14' W 093°15'0 0.0
2017-Nov-18 20:01N 30°14' W 093°15'0 0.0
2017-Nov-18 19:30N 30°14' W 093°15'0 0.0
2017-Nov-18 19:01N 30°14' W 093°15'0 0.0
2017-Nov-18 18:30N 30°14' W 093°15'0 0.9
2017-Nov-18 18:00N 30°13' W 093°15'3 6.1
2017-Nov-18 17:31N 30°11' W 093°18'3 6.1
2017-Nov-18 17:01N 30°09' W 093°20'3 6.0
2017-Nov-18 16:31N 30°06' W 093°20'1 1.9
2017-Nov-18 16:01N 30°05' W 093°20'0 0.0
2017-Nov-18 15:31N 30°05' W 093°20'0 0.0
2017-Nov-18 15:01N 30°05' W 093°20'0 0.0
2017-Nov-18 14:31N 30°05' W 093°20'0 0.0
2017-Nov-18 14:01N 30°05' W 093°20'0 0.0
2017-Nov-18 13:31N 30°05' W 093°20'0 0.3
2017-Nov-18 13:00N 30°05' W 093°20'2 4.6
2017-Nov-18 12:31N 30°07' W 093°18'3 6.0
2017-Nov-18 12:00N 30°04' W 093°20'0 0.2
2017-Nov-18 11:31N 30°04' W 093°20'1 1.5
2017-Nov-18 11:01N 30°05' W 093°20'0 0.0
2017-Nov-18 10:30N 30°05' W 093°20'0 0.0
2017-Nov-18 10:00N 30°05' W 093°20'2 4.4
2017-Nov-18 09:31N 30°07' W 093°18'0 0.3
2017-Nov-18 09:01N 30°07' W 093°18'0 0.2
2017-Nov-18 08:30N 30°07' W 093°18'0 0.1
2017-Nov-18 08:00N 30°07' W 093°18'2 3.0
2017-Nov-18 07:30N 30°06' W 093°19'1 2.6
2017-Nov-18 07:00N 30°05' W 093°20'1 2.9
2017-Nov-18 06:30N 30°04' W 093°21'1 1.5
2017-Nov-18 06:01N 30°04' W 093°21'2 3.7
2017-Nov-18 05:31N 30°06' W 093°20'3 5.8
2017-Nov-18 05:01N 30°09' W 093°20'3 5.6
2017-Nov-18 04:30N 30°11' W 093°18'1 2.8
2017-Nov-18 04:01N 30°12' W 093°17'2 3.9
2017-Nov-18 03:30N 30°13' W 093°16'1 1.1
2017-Nov-18 03:00N 30°14' W 093°15'0 0.0
2017-Nov-18 02:31N 30°14' W 093°15'0 0.0
2017-Nov-18 02:01N 30°14' W 093°15'0 0.0
2017-Nov-18 01:31N 30°14' W 093°15'0 0.0
2017-Nov-18 01:00N 30°14' W 093°15'0 0.0
2017-Nov-18 00:28N 30°14' W 093°15'0 0.0
2017-Nov-18 00:00N 30°14' W 093°15'0 0.0
2017-Nov-17 23:30N 30°14' W 093°15'0 0.0
2017-Nov-17 22:50N 30°14' W 093°15'0 0.0
2017-Nov-17 22:30N 30°14' W 093°15'0 0.0
2017-Nov-17 21:59N 30°14' W 093°15'0 0.0
2017-Nov-17 21:31N 30°14' W 093°15'0 0.0
2017-Nov-17 21:00N 30°14' W 093°15'0 0.0
2017-Nov-17 20:30N 30°14' W 093°15'0 0.0
2017-Nov-17 20:00N 30°14' W 093°15'0 0.0
2017-Nov-17 19:30N 30°14' W 093°15'0 0.0
2017-Nov-17 19:00N 30°14' W 093°15'0 0.0
2017-Nov-17 18:31N 30°14' W 093°15'0 0.0
2017-Nov-17 18:00N 30°14' W 093°15'0 0.0
2017-Nov-17 17:31N 30°14' W 093°15'0 0.0
2017-Nov-17 17:01N 30°14' W 093°15'0 0.0
2017-Nov-17 16:31N 30°14' W 093°15'0 0.0
2017-Nov-17 16:01N 30°14' W 093°15'0 0.0
2017-Nov-17 15:31N 30°14' W 093°15'0 0.6
2017-Nov-17 15:01N 30°14' W 093°15'2 4.0
2017-Nov-17 14:31N 30°12' W 093°17'3 5.4
2017-Nov-17 14:01N 30°10' W 093°19'3 5.2
2017-Nov-17 13:31N 30°08' W 093°20'3 5.3
2017-Nov-17 13:01N 30°05' W 093°20'2 3.5
2017-Nov-17 12:30N 30°04' W 093°21'0 0.0
2017-Nov-17 12:00N 30°04' W 093°21'0 0.0
2017-Nov-17 11:31N 30°04' W 093°21'0 0.0
2017-Nov-17 11:01N 30°04' W 093°21'0 0.0
2017-Nov-17 10:30N 30°04' W 093°21'0 0.0
2017-Nov-17 10:01N 30°04' W 093°21'0 0.0
2017-Nov-17 09:31N 30°04' W 093°21'0 0.0
2017-Nov-17 09:01N 30°04' W 093°21'0 0.0
2017-Nov-17 08:31N 30°04' W 093°21'0 0.0
2017-Nov-17 08:00N 30°04' W 093°21'0 0.0
2017-Nov-17 07:31N 30°04' W 093°21'0 0.0
2017-Nov-17 07:00N 30°04' W 093°21'0 0.0
2017-Nov-17 06:31N 30°04' W 093°21'0 0.0
2017-Nov-17 06:00N 30°04' W 093°21'0 0.0
2017-Nov-17 05:31N 30°04' W 093°21'0 0.0
2017-Nov-17 05:00N 30°04' W 093°21'0 0.0
2017-Nov-17 04:30N 30°04' W 093°21'0 0.1
2017-Nov-17 04:00N 30°04' W 093°21'0 0.9
2017-Nov-17 03:31N 30°04' W 093°22'2 4.4
2017-Nov-17 03:00N 30°05' W 093°20'0 0.0
2017-Nov-17 02:31N 30°05' W 093°20'0 0.0
2017-Nov-17 02:01N 30°05' W 093°20'2 3.2
2017-Nov-17 01:31N 30°06' W 093°20'3 6.6
2017-Nov-17 01:00N 30°10' W 093°19'3 6.5
2017-Nov-17 00:31N 30°12' W 093°17'2 3.9
2017-Nov-16 23:58N 30°14' W 093°15'2 5.3
2017-Nov-16 23:30N 30°12' W 093°17'3 6.6
2017-Nov-16 23:00N 30°09' W 093°20'3 6.6
2017-Nov-16 22:31N 30°06' W 093°20'3 5.6
2017-Nov-16 22:01N 30°04' W 093°21'0 0.2
2017-Nov-16 21:31N 30°04' W 093°21'1 2.6
2017-Nov-16 21:00N 30°05' W 093°20'2 4.7
2017-Nov-16 20:30N 30°07' W 093°20'3 5.4
2017-Nov-16 20:01N 30°10' W 093°19'3 5.6
2017-Nov-16 19:31N 30°12' W 093°17'3 5.2
2017-Nov-16 19:00N 30°14' W 093°15'0 0.4
2017-Nov-16 18:31N 30°14' W 093°15'0 0.0
2017-Nov-16 18:00N 30°14' W 093°15'0 0.0
2017-Nov-16 17:31N 30°14' W 093°15'0 0.0
2017-Nov-16 17:01N 30°14' W 093°15'0 0.0
2017-Nov-16 16:30N 30°14' W 093°15'0 0.0
2017-Nov-16 16:00N 30°14' W 093°15'0 0.0
2017-Nov-16 15:30N 30°14' W 093°15'0 0.0
2017-Nov-16 15:00N 30°14' W 093°15'0 0.0
2017-Nov-16 14:31N 30°14' W 093°15'0 0.0
2017-Nov-16 13:58N 30°14' W 093°15'0 0.0
2017-Nov-16 13:29N 30°14' W 093°15'0 0.0
2017-Nov-16 13:01N 30°14' W 093°15'0 0.0
2017-Nov-16 12:31N 30°14' W 093°15'0 0.0
2017-Nov-16 12:00N 30°14' W 093°15'0 0.0
2017-Nov-16 11:31N 30°14' W 093°15'0 0.0
2017-Nov-16 11:01N 30°14' W 093°15'0 0.0
2017-Nov-16 10:30N 30°14' W 093°15'0 0.0
2017-Nov-16 10:00N 30°14' W 093°15'0 0.0
2017-Nov-16 09:30N 30°14' W 093°15'0 0.0
2017-Nov-16 09:01N 30°14' W 093°15'0 0.0
2017-Nov-16 08:31N 30°14' W 093°15'0 0.0
2017-Nov-16 08:01N 30°14' W 093°15'0 0.0
2017-Nov-16 07:30N 30°14' W 093°15'0 0.0
2017-Nov-16 07:01N 30°14' W 093°15'0 0.0
2017-Nov-16 06:30N 30°14' W 093°15'1 1.7
2017-Nov-16 06:00N 30°13' W 093°16'3 6.2
2017-Nov-16 05:31N 30°11' W 093°18'3 5.8
2017-Nov-16 05:00N 30°09' W 093°20'3 6.0
2017-Nov-16 04:31N 30°06' W 093°20'1 2.5
2017-Nov-16 04:01N 30°04' W 093°20'1 2.1
2017-Nov-16 03:31N 30°04' W 093°21'0 0.0
2017-Nov-16 03:01N 30°04' W 093°21'0 0.0
2017-Nov-16 02:31N 30°04' W 093°21'0 0.0
2017-Nov-16 02:01N 30°04' W 093°21'0 0.0
2017-Nov-16 01:30N 30°04' W 093°21'0 0.0
2017-Nov-16 01:00N 30°04' W 093°21'0 0.0
2017-Nov-16 00:31N 30°04' W 093°21'0 0.0
2017-Nov-16 00:00N 30°04' W 093°21'0 0.0
2017-Nov-15 23:31N 30°04' W 093°21'0 0.0
2017-Nov-15 23:01N 30°04' W 093°21'0 0.0
2017-Nov-15 22:31N 30°04' W 093°21'0 0.0
2017-Nov-15 22:01N 30°04' W 093°21'0 0.0
2017-Nov-15 21:30N 30°04' W 093°21'0 0.4
2017-Nov-15 21:01N 30°04' W 093°21'1 2.9
2017-Nov-15 20:31N 30°05' W 093°20'1 1.1
2017-Nov-15 20:00N 30°05' W 093°20'0 0.0
2017-Nov-15 19:30N 30°05' W 093°20'0 0.6
2017-Nov-15 19:01N 30°05' W 093°20'0 0.7
2017-Nov-15 18:31N 30°05' W 093°20'0 0.0
2017-Nov-15 18:01N 30°05' W 093°20'0 0.0
2017-Nov-15 17:31N 30°05' W 093°20'0 0.0
2017-Nov-15 17:01N 30°05' W 093°20'0 0.0
2017-Nov-15 16:31N 30°05' W 093°20'0 0.0
2017-Nov-15 16:01N 30°05' W 093°20'0 0.0
2017-Nov-15 15:30N 30°05' W 093°20'0 0.0
2017-Nov-15 15:01N 30°05' W 093°20'0 0.0
2017-Nov-15 14:31N 30°05' W 093°20'0 0.0
2017-Nov-15 14:00N 30°05' W 093°20'0 0.0
2017-Nov-15 13:31N 30°05' W 093°20'0 0.0
2017-Nov-15 13:01N 30°05' W 093°20'0 0.0
2017-Nov-15 12:31N 30°05' W 093°20'0 0.0
2017-Nov-15 12:00N 30°05' W 093°20'0 0.0
2017-Nov-15 11:31N 30°05' W 093°20'0 0.0
2017-Nov-15 11:00N 30°05' W 093°20'0 0.0
2017-Nov-15 10:30N 30°05' W 093°20'0 0.0
2017-Nov-15 10:00N 30°05' W 093°20'0 0.0
2017-Nov-15 09:30N 30°05' W 093°20'0 0.0
2017-Nov-15 09:00N 30°05' W 093°20'0 0.0
2017-Nov-15 08:30N 30°05' W 093°20'0 0.0
2017-Nov-15 08:00N 30°05' W 093°20'0 0.0
2017-Nov-15 07:30N 30°05' W 093°20'1 1.7
2017-Nov-15 07:00N 30°06' W 093°20'3 6.2
2017-Nov-15 06:30N 30°09' W 093°20'3 5.7
2017-Nov-15 06:00N 30°11' W 093°18'3 5.2
2017-Nov-15 05:30N 30°13' W 093°17'0 0.1
2017-Nov-15 05:00N 30°13' W 093°17'3 5.1
2017-Nov-15 04:30N 30°11' W 093°18'3 5.5
2017-Nov-15 04:00N 30°09' W 093°20'3 5.8
2017-Nov-15 03:30N 30°06' W 093°20'3 5.1
2017-Nov-15 03:00N 30°04' W 093°21'1 1.6
2017-Nov-15 02:30N 30°04' W 093°20'1 1.9
2017-Nov-15 02:00N 30°05' W 093°20'0 0.2
2017-Nov-15 01:30N 30°05' W 093°20'0 0.4
2017-Nov-15 01:00N 30°05' W 093°20'0 0.0
2017-Nov-15 00:30N 30°05' W 093°20'0 0.0
2017-Nov-15 00:00N 30°05' W 093°20'1 2.3
2017-Nov-14 23:30N 30°04' W 093°21'1 1.3
2017-Nov-14 23:00N 30°04' W 093°21'0 0.0
2017-Nov-14 22:30N 30°04' W 093°21'0 0.0
2017-Nov-14 22:00N 30°04' W 093°21'0 0.0
2017-Nov-14 21:30N 30°04' W 093°21'0 0.0
2017-Nov-14 21:00N 30°04' W 093°21'0 0.0
2017-Nov-14 20:30N 30°04' W 093°21'0 0.0
2017-Nov-14 20:00N 30°04' W 093°21'1 2.8
2017-Nov-14 19:30N 30°05' W 093°20'0 0.8
2017-Nov-14 19:00N 30°05' W 093°20'2 3.4
2017-Nov-14 18:30N 30°04' W 093°21'2 3.4
2017-Nov-14 18:00N 30°05' W 093°20'0 0.3
2017-Nov-14 17:30N 30°05' W 093°20'0 0.0
2017-Nov-14 17:00N 30°05' W 093°20'0 0.0
2017-Nov-14 16:30N 30°05' W 093°20'0 0.0
2017-Nov-14 16:00N 30°05' W 093°20'0 0.0
2017-Nov-14 15:30N 30°05' W 093°20'0 0.0
2017-Nov-14 15:00N 30°05' W 093°20'0 0.0
2017-Nov-14 14:30N 30°05' W 093°20'0 0.7
2017-Nov-14 13:59N 30°05' W 093°20'1 1.4
2017-Nov-14 13:30N 30°06' W 093°20'3 6.4
2017-Nov-14 13:00N 30°09' W 093°20'3 6.1
2017-Nov-14 12:30N 30°11' W 093°18'3 5.5
2017-Nov-14 11:55N 30°14' W 093°15'4 0.3
2017-Nov-13 22:47N 30°11' W 093°18'3 6.2
2017-Nov-13 22:21N 30°09' W 093°20'4 5.5
2017-Nov-13 21:39N 30°05' W 093°20'1 0.0
2017-Nov-13 01:04N 30°04' W 093°20'0 4.6
2017-Nov-13 00:59N 30°04' W 093°21'1 2.3
2017-Nov-13 00:29N 30°05' W 093°20'0 0.0
2017-Nov-12 23:39N 30°05' W 093°20'0 0.0
2017-Nov-12 23:27N 30°05' W 093°20'0 0.0
2017-Nov-12 22:59N 30°05' W 093°20'0 0.0
2017-Nov-12 22:29N 30°05' W 093°20'0 0.0
2017-Nov-12 21:59N 30°05' W 093°20'0 0.2
2017-Nov-12 21:29N 30°05' W 093°20'1 1.0
2017-Nov-12 20:55N 30°05' W 093°20'0 0.0
2017-Nov-12 20:29N 30°05' W 093°20'0 0.2
2017-Nov-12 19:59N 30°05' W 093°20'0 0.0
2017-Nov-12 19:29N 30°05' W 093°20'1 1.1
2017-Nov-12 18:55N 30°05' W 093°20'0 0.0
2017-Nov-12 17:38N 30°05' W 093°20'0 0.0
2017-Nov-12 17:27N 30°05' W 093°20'2 3.9
2017-Nov-12 16:59N 30°04' W 093°21'0 0.0
2017-Nov-12 16:30N 30°04' W 093°21'0 0.0
2017-Nov-12 15:59N 30°04' W 093°21'0 0.0
2017-Nov-12 15:29N 30°04' W 093°21'0 0.0
2017-Nov-12 14:57N 30°04' W 093°21'0 0.0
2017-Nov-12 14:27N 30°04' W 093°21'0 0.0
2017-Nov-12 13:55N 30°04' W 093°21'0 0.0
2017-Nov-12 13:27N 30°04' W 093°21'0 0.0
2017-Nov-12 12:59N 30°04' W 093°21'0 0.0
2017-Nov-12 12:23N 30°04' W 093°21'0 0.0
2017-Nov-12 11:53N 30°04' W 093°21'2 0.0
2017-Nov-10 16:30N 30°05' W 093°20'3 5.5
2017-Nov-10 16:00N 30°08' W 093°20'3 5.6
2017-Nov-10 15:30N 30°10' W 093°19'3 6.2
2017-Nov-10 15:00N 30°12' W 093°16'2 3.6
2017-Nov-10 14:31N 30°14' W 093°15'0 0.0
2017-Nov-10 14:00N 30°14' W 093°15'0 0.0
2017-Nov-10 13:30N 30°14' W 093°15'0 0.0
2017-Nov-10 13:00N 30°14' W 093°15'0 0.0
2017-Nov-10 12:31N 30°14' W 093°15'0 0.0
2017-Nov-10 12:01N 30°14' W 093°15'0 0.0
2017-Nov-10 11:31N 30°14' W 093°15'0 0.0
2017-Nov-10 11:00N 30°14' W 093°15'0 0.0
2017-Nov-10 10:30N 30°14' W 093°15'0 0.0
2017-Nov-10 10:01N 30°14' W 093°15'0 0.0
2017-Nov-10 09:30N 30°14' W 093°15'0 0.0
2017-Nov-10 09:01N 30°14' W 093°15'0 0.0
2017-Nov-10 08:30N 30°14' W 093°15'0 0.0
2017-Nov-10 08:00N 30°14' W 093°15'0 0.0
2017-Nov-10 07:31N 30°14' W 093°15'1 2.4
2017-Nov-10 07:01N 30°13' W 093°16'3 5.3
2017-Nov-10 06:31N 30°11' W 093°18'2 4.7
2017-Nov-10 06:00N 30°09' W 093°20'3 6.2
2017-Nov-10 05:30N 30°06' W 093°20'1 2.6
2017-Nov-10 05:01N 30°05' W 093°20'3 6.1
2017-Nov-10 04:31N 30°08' W 093°20'3 6.3
2017-Nov-10 04:01N 30°11' W 093°19'3 6.5
2017-Nov-10 03:30N 30°13' W 093°16'1 1.6
2017-Nov-10 02:59N 30°14' W 093°15'1 2.5
2017-Nov-10 02:31N 30°13' W 093°16'3 7.0
2017-Nov-10 02:01N 30°11' W 093°19'3 5.8
2017-Nov-10 01:31N 30°08' W 093°20'3 5.8
2017-Nov-10 01:00N 30°05' W 093°20'0 0.2
2017-Nov-10 00:31N 30°05' W 093°20'  

Dump ship's entire track history